Bachir Chihani — 7TJA — position and weather

sailwx.info

Track history (hours):
 
Tides and Currents Weather Stations Pressure Air Temp Water Temp Dewpoint Dewpoint Depression Visibility Wind Speed Wind Dir Waves Ship Positions

Bachir Chihani

Last reported at 2014-Oct-01 01:31 UTC. Time now 2014-Oct-01 20:28 UTC.
Position N 35°59' W 000°12'.

Length 280 m; draft 9.8 m.

Type: Ship (hazmat cat C). MMSI: 605106010.

Date/timePositionNaut miles runAvg speedWind from/ knotsBaromVisibWave heightAir tempDewpointWater temp
2014-Oct-01 01:31N 35°59' W 000°12'2 1.7
2014-Oct-01 00:31N 35°58' W 000°10'112 3.7
2014-Sep-29 18:33N 36°50' E 001°53'4210.6
2014-Sep-29 14:33N 36°58' E 002°45'10 9.9
2014-Sep-29 13:30N 37°00' E 002°57'1110.3
2014-Sep-29 12:25N 37°01' E 003°12'50212.2
2014-Sep-27 19:20N 36°39' E 013°38'1012.5
2014-Sep-27 18:31N 36°36' E 013°50'1412.6
2014-Sep-27 17:22N 36°33' E 014°08'1212.9
2014-Sep-27 16:27N 36°31' E 014°22'1213.1
2014-Sep-27 15:33N 36°29' E 014°36'42412.4
2014-Sep-26 05:31N 36°14' E 023°22'1313.5
2014-Sep-26 04:33N 36°24' E 023°33'1413.6
2014-Sep-26 03:33N 36°34' E 023°45'1313.5
2014-Sep-26 02:33N 36°44' E 023°56'1313.5
2014-Sep-26 01:33N 36°52' E 024°09'1413.8
2014-Sep-26 00:33N 36°59' E 024°24'1413.8
2014-Sep-25 23:33N 37°07' E 024°39'1413.7
2014-Sep-25 22:33N 37°14' E 024°53'1313.4
2014-Sep-25 21:33N 37°17' E 025°10'1313.4
2014-Sep-25 20:33N 37°19' E 025°26'1313.1
2014-Sep-25 19:33N 37°21' E 025°42'1413.3
2014-Sep-25 18:30N 37°35' E 025°44'1213.1
2014-Sep-25 17:33N 37°47' E 025°44'  
2014-Sep-22 21:34N 39°09' E 025°44'10 9.7
2014-Sep-22 20:33N 38°59' E 025°44'10 9.6
2014-Sep-22 19:31N 38°49' E 025°44'10 9.9
2014-Sep-22 18:33N 38°39' E 025°44'1010.0
2014-Sep-22 17:33N 38°30' E 025°44'9 9.5
2014-Sep-22 16:33N 38°20' E 025°43'1010.0
2014-Sep-22 15:33N 38°10' E 025°44'10 9.9
2014-Sep-22 14:33N 38°00' E 025°44'10 9.7
2014-Sep-22 13:33N 37°51' E 025°44'1211.8
2014-Sep-22 12:33N 37°39' E 025°44'1212.4
2014-Sep-22 11:33N 37°26' E 025°44'10 9.6
2014-Sep-22 10:34N 37°20' E 025°35'1212.4
2014-Sep-22 09:33N 37°18' E 025°20'1212.2
2014-Sep-22 08:33N 37°16' E 025°05'1211.5
2014-Sep-22 07:33N 37°13' E 024°51'1211.9
2014-Sep-22 06:33N 37°06' E 024°38'1212.4
2014-Sep-22 05:33N 37°00' E 024°25'1211.6
2014-Sep-22 04:33N 36°54' E 024°13'1211.7
2014-Sep-22 03:33N 36°47' E 024°01'1212.1
2014-Sep-22 02:34N 36°39' E 023°50'1212.0
2014-Sep-22 01:34N 36°30' E 023°40'1211.8
2014-Sep-22 00:33N 36°21' E 023°30'1211.7
2014-Sep-21 23:33N 36°12' E 023°20'1211.8
2014-Sep-21 22:33N 36°04' E 023°10'1111.4
2014-Sep-21 21:34N 36°01' E 022°56'1412.4
2014-Sep-21 20:27N 36°01' E 022°40'  
Track history (hours):
 
Tides and Currents Weather Stations Pressure Air Temp Water Temp Dewpoint Dewpoint Depression Visibility Wind Speed Wind Dir Waves Ship Positions

Bachir Chihani

Last reported at 2014-Oct-01 01:31 UTC. Time now 2014-Oct-01 20:28 UTC.
Position N 35°59' W 000°12'.

Length 280 m; draft 9.8 m.

Type: Ship (hazmat cat C). MMSI: 605106010.

Date/timePositionNaut miles runAvg speedWind from/ knotsBaromVisibWave heightAir tempDewpointWater temp
2014-Oct-01 01:31N 35°59' W 000°12'2 1.7
2014-Oct-01 00:31N 35°58' W 000°10'112 3.7
2014-Sep-29 18:33N 36°50' E 001°53'4210.6
2014-Sep-29 14:33N 36°58' E 002°45'10 9.9
2014-Sep-29 13:30N 37°00' E 002°57'1110.3
2014-Sep-29 12:25N 37°01' E 003°12'50212.2
2014-Sep-27 19:20N 36°39' E 013°38'1012.5
2014-Sep-27 18:31N 36°36' E 013°50'1412.6
2014-Sep-27 17:22N 36°33' E 014°08'1212.9
2014-Sep-27 16:27N 36°31' E 014°22'1213.1
2014-Sep-27 15:33N 36°29' E 014°36'42412.4
2014-Sep-26 05:31N 36°14' E 023°22'1313.5
2014-Sep-26 04:33N 36°24' E 023°33'1413.6
2014-Sep-26 03:33N 36°34' E 023°45'1313.5
2014-Sep-26 02:33N 36°44' E 023°56'1313.5
2014-Sep-26 01:33N 36°52' E 024°09'1413.8
2014-Sep-26 00:33N 36°59' E 024°24'1413.8
2014-Sep-25 23:33N 37°07' E 024°39'1413.7
2014-Sep-25 22:33N 37°14' E 024°53'1313.4
2014-Sep-25 21:33N 37°17' E 025°10'1313.4
2014-Sep-25 20:33N 37°19' E 025°26'1313.1
2014-Sep-25 19:33N 37°21' E 025°42'1413.3
2014-Sep-25 18:30N 37°35' E 025°44'1213.1
2014-Sep-25 17:33N 37°47' E 025°44'  
2014-Sep-22 21:34N 39°09' E 025°44'10 9.7
2014-Sep-22 20:33N 38°59' E 025°44'10 9.6
2014-Sep-22 19:31N 38°49' E 025°44'10 9.9
2014-Sep-22 18:33N 38°39' E 025°44'1010.0
2014-Sep-22 17:33N 38°30' E 025°44'9 9.5
2014-Sep-22 16:33N 38°20' E 025°43'1010.0
2014-Sep-22 15:33N 38°10' E 025°44'10 9.9
2014-Sep-22 14:33N 38°00' E 025°44'10 9.7
2014-Sep-22 13:33N 37°51' E 025°44'1211.8
2014-Sep-22 12:33N 37°39' E 025°44'1212.4
2014-Sep-22 11:33N 37°26' E 025°44'10 9.6
2014-Sep-22 10:34N 37°20' E 025°35'1212.4
2014-Sep-22 09:33N 37°18' E 025°20'1212.2
2014-Sep-22 08:33N 37°16' E 025°05'1211.5
2014-Sep-22 07:33N 37°13' E 024°51'1211.9
2014-Sep-22 06:33N 37°06' E 024°38'1212.4
2014-Sep-22 05:33N 37°00' E 024°25'1211.6
2014-Sep-22 04:33N 36°54' E 024°13'1211.7
2014-Sep-22 03:33N 36°47' E 024°01'1212.1
2014-Sep-22 02:34N 36°39' E 023°50'1212.0
2014-Sep-22 01:34N 36°30' E 023°40'1211.8
2014-Sep-22 00:33N 36°21' E 023°30'1211.7
2014-Sep-21 23:33N 36°12' E 023°20'1211.8
2014-Sep-21 22:33N 36°04' E 023°10'1111.4
2014-Sep-21 21:34N 36°01' E 022°56'1412.4
2014-Sep-21 20:27N 36°01' E 022°40'  

Dump ship's entire track history